Accueil
METAR-TAF:

METAR-TAF

Aéroports :

Aéroport international Antonio-B.-Won-Pat de Guam

Hagåtña, Guam, États-Unis

latitude: 13-29N, longitude: 144-48E, altitude: 91 m

Observation

Le bulletin a été fait il y a 27 minutes, à 03:54 UTC
Vent 11 kt de est/sud-est
Température 32°C
Humidité 71%
Pression 1012 hPa
Visibilité: 14.5 km
Quelques nuages à une hauteur de 2800 ft

METAR: PGUM 230354Z 11011KT 9SM FEW028 32/26 A2989 RMK AO2 SLP112 T03170256

Heure: 14:21 (04:21 UTC)

Prévision

Le bulletin a été fait il y a 5 heures et 1 minutes, à 23:20 UTC
Prévision valable du 23 à 00 UTC au 24 à 06 UTC
Vent 11 kt de est
Visibilité: 10 km
Quelques nuages à une hauteur de 2000 ft
Nuages épars à une hauteur de 5000 ft

TAF: PGUM 222320Z 2300/2406 09011KT P6SM FEW020 SCT050

Observations et prévisions météorologiques de plus de 4000 aéroports (messages METAR et TAF).

Les stations disponibles sont représentées par des disques jaunes et rouges sur la carte.

Passer la souris dessus pour voir le nom de la station.

Cliquer dessus pour voir les observations et prévisions météorologiques.

Pour changer de carte: cliquez sur les boutons verts avec une croix noire pour zoomer, sur le bouton vert avec un tiret pour effectuer un zoom arrière, ou sur les flèches vertes pour les cartes adjacentes.


METAR-TAF: